Aérodrome :
LOGIN :

S'inscrire | Disclaimer

   EN    FR    IT 

 










Légende :    VFR   VFR Marginal   IFR   IFR Intensif   IFR Très Intensif
Visi : 
Plafond : 
>= 8 km
>= 3000ft
5 à 8 km
1000 à 3000 ft
1500m à 5 km
500 à 1000 ft
800 à 1500m
200 à 500 ft
< 800m
< 200 ft
Symboles :   Orages  Brouillard  Fortes neiges  Fortes précipitations  Vent > 20 kt
SIGMETs :   Divers  Orages  Givrage  Turbulence  Onde Orograph.  Cendres Volcan.







- Altitude de l'aérodrome : 1966 ft
- Code IATA : SGE


EDGS - Siegerland

DERNIER METAR :
  • 161520Z 27014G24KT 8000 VCSH SCT002 BKN004 M00/M00 Q0993 RETSSN

METARs EXPIRÉS :
  • 161450Z 29020KT 260V320 0500 R31/0650N TSSN FZFG OVC002 M01/M01 Q0993
  • 161420Z 29015KT 7000 1800NW PRFG SCT001 BKN003 M00/M01 Q0993 RESN
  • 161350Z 29014G24KT 0800 R31/1500N SN FZFG OVC002 M00/M00 Q0993 RETSSN
  • 161320Z 29013G23KT 1700 TSSN SCT003CB BKN005 M00/M00 Q0992
  • 161250Z 29014G24KT 1800 0900NW R31/P1500D PRFG SCT001 BKN003 00/00 Q0992

TAF TAF EDGS
Valide du 16 à 15h jusqu'au 17 à 00h UTC


161400Z 1615/1624 24015G25KT 9999 SCT005 BKN015
TEMPO 1615/1624 26020G35KT 1200 SHSN BKN004CB BKN008
PROB40
TEMPO 1615/1618 0500 TSSN BKN001CB
Pas de NOTAMs connus pour ce terrain.
1 SIGMET publié pour la FIR Langen (EDGG) :
 
Turbulence forte
EDGG SIGMET 7 VALID 161400/161600 EDZF
EDGG LANGEN FIR SEV TURB FCST S OF N4900 SFC/FL060 STNR WKN=



MET'MAP, la Météo Aéronautique d'un coup d'oeil ! - Copyright ORBIFLY Décembre 2007 - Disclaimer

ORBIFLY MET'MAP TEAM :

Programmation & Développement : Alexandra Zaïnal
Conception & Développement : Baudouin d'Aumeries
Co-Programmation & Développement : Marc-Olivier Méhu
Soutien technique & logistique : Manuel Goepfert

Contact : metmap@orbifly.com




SOURCES & CREDITS :

   NOAA